sensor_id;sensor_type;location;lat;lon;timestamp;P1;durP1;ratioP1;P2;durP2;ratioP2
35304;SDS011;26433;48.034;-1.764;2023-03-23T06:01:08;8.30;;;1.00;;
35304;SDS011;26433;48.034;-1.764;2023-03-23T06:06:14;4.50;;;0.60;;
35304;SDS011;26433;48.034;-1.764;2023-03-23T06:11:20;13.60;;;0.80;;
35304;SDS011;26433;48.034;-1.764;2023-03-23T06:16:26;4.85;;;0.90;;
35304;SDS011;26433;48.034;-1.764;2023-03-23T06:21:30;14.18;;;1.23;;
35304;SDS011;26433;48.034;-1.764;2023-03-23T06:26:34;3.87;;;0.70;;
35304;SDS011;26433;48.034;-1.764;2023-03-23T06:31:41;2.90;;;0.73;;
35304;SDS011;26433;48.034;-1.764;2023-03-23T06:36:51;7.55;;;0.77;;
35304;SDS011;26433;48.034;-1.764;2023-03-23T06:41:56;1.75;;;0.82;;
35304;SDS011;26433;48.034;-1.764;2023-03-23T06:47:02;4.07;;;0.82;;
35304;SDS011;26433;48.034;-1.764;2023-03-23T06:52:05;6.37;;;0.80;;
35304;SDS011;26433;48.034;-1.764;2023-03-23T06:57:08;6.43;;;0.77;;
35304;SDS011;26433;48.034;-1.764;2023-03-23T07:02:13;8.55;;;0.90;;
35304;SDS011;26433;48.034;-1.764;2023-03-23T07:07:16;2.53;;;0.55;;
35304;SDS011;26433;48.034;-1.764;2023-03-23T07:12:20;6.53;;;0.60;;
35304;SDS011;26433;48.034;-1.764;2023-03-23T07:17:25;5.18;;;1.00;;
35304;SDS011;26433;48.034;-1.764;2023-03-23T07:22:32;16.08;;;1.33;;
35304;SDS011;26433;48.034;-1.764;2023-03-23T07:27:36;2.47;;;0.65;;
35304;SDS011;26433;48.034;-1.764;2023-03-23T07:32:41;8.10;;;1.10;;
35304;SDS011;26433;48.034;-1.764;2023-03-23T07:37:44;12.73;;;1.35;;
35304;SDS011;26433;48.034;-1.764;2023-03-23T07:42:52;3.70;;;1.20;;
35304;SDS011;26433;48.034;-1.764;2023-03-23T07:48:00;7.75;;;1.50;;
35304;SDS011;26433;48.034;-1.764;2023-03-23T07:53:04;8.10;;;1.62;;
35304;SDS011;26433;48.034;-1.764;2023-03-23T08:03:12;12.27;;;1.12;;
35304;SDS011;26433;48.034;-1.764;2023-03-23T08:08:16;10.30;;;1.62;;
35304;SDS011;26433;48.034;-1.764;2023-03-23T08:13:20;8.88;;;1.25;;
35304;SDS011;26433;48.034;-1.764;2023-03-23T08:18:24;7.43;;;0.95;;
35304;SDS011;26433;48.034;-1.764;2023-03-23T08:23:28;5.25;;;1.10;;
35304;SDS011;26433;48.034;-1.764;2023-03-23T08:28:32;7.15;;;1.73;;
35304;SDS011;26433;48.034;-1.764;2023-03-23T08:33:37;4.83;;;1.00;;
35304;SDS011;26433;48.034;-1.764;2023-03-23T08:38:42;2.62;;;0.62;;
35304;SDS011;26433;48.034;-1.764;2023-03-23T08:43:45;11.23;;;1.07;;
35304;SDS011;26433;48.034;-1.764;2023-03-23T08:48:50;4.60;;;0.82;;
35304;SDS011;26433;48.034;-1.764;2023-03-23T08:53:55;7.78;;;1.60;;
35304;SDS011;26433;48.034;-1.764;2023-03-23T08:58:59;12.23;;;0.90;;
35304;SDS011;26433;48.034;-1.764;2023-03-23T09:04:04;4.43;;;1.20;;
35304;SDS011;26433;48.034;-1.764;2023-03-23T09:14:10;12.95;;;1.33;;
35304;SDS011;26433;48.034;-1.764;2023-03-23T09:19:14;13.25;;;1.10;;
35304;SDS011;26433;48.034;-1.764;2023-03-23T09:24:17;11.75;;;0.82;;
35304;SDS011;26433;48.034;-1.764;2023-03-23T09:29:19;7.45;;;1.00;;
35304;SDS011;26433;48.034;-1.764;2023-03-23T09:34:24;6.07;;;1.08;;
35304;SDS011;26433;48.034;-1.764;2023-03-23T09:39:26;14.45;;;1.40;;
35304;SDS011;26433;48.034;-1.764;2023-03-23T09:44:30;3.03;;;0.60;;
35304;SDS011;26433;48.034;-1.764;2023-03-23T09:49:41;6.10;;;1.12;;
35304;SDS011;26433;48.034;-1.764;2023-03-23T09:54:46;7.95;;;1.02;;
35304;SDS011;26433;48.034;-1.764;2023-03-23T09:59:52;5.90;;;0.75;;
35304;SDS011;26433;48.034;-1.764;2023-03-23T10:05:07;8.45;;;1.00;;
35304;SDS011;26433;48.034;-1.764;2023-03-23T10:15:27;6.62;;;0.82;;
35304;SDS011;26433;48.034;-1.764;2023-03-23T10:20:41;7.95;;;0.93;;
35304;SDS011;26433;48.034;-1.764;2023-03-23T10:25:48;4.00;;;0.77;;
35304;SDS011;26433;48.034;-1.764;2023-03-23T10:30:55;2.78;;;0.70;;
35304;SDS011;26433;48.034;-1.764;2023-03-23T10:36:00;3.47;;;0.80;;
35304;SDS011;26433;48.034;-1.764;2023-03-23T10:41:09;15.13;;;0.98;;
35304;SDS011;26433;48.034;-1.764;2023-03-23T10:46:26;1.55;;;0.68;;
35304;SDS011;26433;48.034;-1.764;2023-03-23T10:51:50;6.22;;;0.73;;
35304;SDS011;26433;48.034;-1.764;2023-03-23T10:57:00;4.85;;;1.15;;
35304;SDS011;26433;48.034;-1.764;2023-03-23T11:02:14;7.10;;;0.82;;
35304;SDS011;26433;48.034;-1.764;2023-03-23T11:07:20;12.15;;;1.30;;
35304;SDS011;26433;48.034;-1.764;2023-03-23T11:12:32;4.45;;;1.45;;
35304;SDS011;26433;48.034;-1.764;2023-03-23T11:17:36;14.68;;;0.68;;
35304;SDS011;26433;48.034;-1.764;2023-03-23T11:22:39;8.75;;;1.55;;
35304;SDS011;26433;48.034;-1.764;2023-03-23T11:27:45;10.88;;;1.15;;
35304;SDS011;26433;48.034;-1.764;2023-03-23T11:32:47;3.00;;;1.10;;
35304;SDS011;26433;48.034;-1.764;2023-03-23T11:37:52;6.62;;;1.52;;
35304;SDS011;26433;48.034;-1.764;2023-03-23T11:42:58;5.18;;;0.98;;
35304;SDS011;26433;48.034;-1.764;2023-03-23T11:48:10;1.67;;;0.68;;
35304;SDS011;26433;48.034;-1.764;2023-03-23T11:53:22;2.35;;;0.95;;
35304;SDS011;26433;48.034;-1.764;2023-03-23T11:58:30;8.13;;;1.30;;
35304;SDS011;26433;48.034;-1.764;2023-03-23T12:09:12;6.82;;;1.27;;
35304;SDS011;26433;48.034;-1.764;2023-03-23T12:14:24;14.63;;;1.40;;
35304;SDS011;26433;48.034;-1.764;2023-03-23T12:19:33;3.45;;;1.05;;
35304;SDS011;26433;48.034;-1.764;2023-03-23T12:24:46;9.90;;;1.62;;
35304;SDS011;26433;48.034;-1.764;2023-03-23T12:30:04;1.90;;;0.95;;
35304;SDS011;26433;48.034;-1.764;2023-03-23T12:35:21;2.62;;;1.08;;
35304;SDS011;26433;48.034;-1.764;2023-03-23T12:40:37;8.55;;;1.48;;
35304;SDS011;26433;48.034;-1.764;2023-03-23T12:46:03;10.20;;;1.20;;
35304;SDS011;26433;48.034;-1.764;2023-03-23T12:51:19;4.90;;;1.15;;
35304;SDS011;26433;48.034;-1.764;2023-03-23T12:56:28;8.35;;;1.60;;
35304;SDS011;26433;48.034;-1.764;2023-03-23T13:01:36;3.85;;;1.08;;
35304;SDS011;26433;48.034;-1.764;2023-03-23T13:06:42;2.92;;;1.33;;
35304;SDS011;26433;48.034;-1.764;2023-03-23T13:11:48;7.05;;;1.67;;
35304;SDS011;26433;48.034;-1.764;2023-03-23T13:16:54;4.62;;;1.10;;
35304;SDS011;26433;48.034;-1.764;2023-03-23T13:22:04;8.23;;;1.58;;
35304;SDS011;26433;48.034;-1.764;2023-03-23T13:27:12;6.70;;;1.30;;
35304;SDS011;26433;48.034;-1.764;2023-03-23T13:32:16;1.80;;;0.95;;
35304;SDS011;26433;48.034;-1.764;2023-03-23T13:37:21;5.70;;;0.82;;
35304;SDS011;26433;48.034;-1.764;2023-03-23T13:42:28;11.23;;;1.55;;
35304;SDS011;26433;48.034;-1.764;2023-03-23T13:47:36;6.72;;;0.93;;
35304;SDS011;26433;48.034;-1.764;2023-03-23T13:52:47;5.25;;;1.17;;
35304;SDS011;26433;48.034;-1.764;2023-03-23T13:57:55;6.20;;;0.55;;
35304;SDS011;26433;48.034;-1.764;2023-03-23T14:03:00;3.17;;;0.95;;
35304;SDS011;26433;48.034;-1.764;2023-03-23T14:08:10;5.68;;;1.25;;
35304;SDS011;26433;48.034;-1.764;2023-03-23T14:13:32;7.05;;;1.05;;
35304;SDS011;26433;48.034;-1.764;2023-03-23T14:18:38;4.43;;;0.93;;
35304;SDS011;26433;48.034;-1.764;2023-03-23T14:23:43;1.12;;;0.60;;
35304;SDS011;26433;48.034;-1.764;2023-03-23T14:28:49;1.23;;;0.65;;
35304;SDS011;26433;48.034;-1.764;2023-03-23T14:33:53;6.03;;;0.88;;
35304;SDS011;26433;48.034;-1.764;2023-03-23T14:39:02;9.20;;;0.90;;
35304;SDS011;26433;48.034;-1.764;2023-03-23T14:44:22;3.70;;;0.65;;
35304;SDS011;26433;48.034;-1.764;2023-03-23T14:49:30;0.73;;;0.35;;
35304;SDS011;26433;48.034;-1.764;2023-03-23T14:54:34;1.62;;;0.60;;
35304;SDS011;26433;48.034;-1.764;2023-03-23T14:59:41;0.85;;;0.52;;
35304;SDS011;26433;48.034;-1.764;2023-03-23T15:04:44;3.60;;;0.30;;
35304;SDS011;26433;48.034;-1.764;2023-03-23T15:09:49;4.70;;;0.40;;
35304;SDS011;26433;48.034;-1.764;2023-03-23T15:14:53;2.30;;;0.70;;
35304;SDS011;26433;48.034;-1.764;2023-03-23T15:20:06;3.78;;;0.68;;
35304;SDS011;26433;48.034;-1.764;2023-03-23T15:25:11;4.75;;;0.65;;
35304;SDS011;26433;48.034;-1.764;2023-03-23T15:30:31;1.00;;;0.50;;
35304;SDS011;26433;48.034;-1.764;2023-03-23T15:35:35;0.20;;;0.20;;
35304;SDS011;26433;48.034;-1.764;2023-03-23T15:45:56;0.60;;;0.30;;
35304;SDS011;26433;48.034;-1.764;2023-03-23T15:51:34;0.52;;;0.20;;
35304;SDS011;26433;48.034;-1.764;2023-03-23T15:56:43;0.37;;;0.30;;
35304;SDS011;26433;48.034;-1.764;2023-03-23T16:11:57;0.90;;;0.30;;
35304;SDS011;26433;48.034;-1.764;2023-03-23T16:17:03;0.10;;;0.10;;
35304;SDS011;26433;48.034;-1.764;2023-03-23T16:22:07;0.50;;;0.35;;
35304;SDS011;26433;48.034;-1.764;2023-03-23T16:27:11;0.10;;;0.10;;
35304;SDS011;26433;48.034;-1.764;2023-03-23T16:32:16;1.50;;;0.40;;
35304;SDS011;26433;48.034;-1.764;2023-03-23T16:37:20;0.17;;;0.17;;
35304;SDS011;26433;48.034;-1.764;2023-03-23T16:42:24;1.07;;;0.50;;
35304;SDS011;26433;48.034;-1.764;2023-03-23T16:47:29;0.37;;;0.27;;
35304;SDS011;26433;48.034;-1.764;2023-03-23T16:52:33;1.02;;;0.30;;
35304;SDS011;26433;48.034;-1.764;2023-03-23T16:57:47;0.65;;;0.30;;
35304;SDS011;26433;48.034;-1.764;2023-03-23T17:02:53;0.63;;;0.40;;
35304;SDS011;26433;48.034;-1.764;2023-03-23T17:07:59;0.55;;;0.28;;
35304;SDS011;26433;48.034;-1.764;2023-03-23T17:13:02;0.93;;;0.40;;
35304;SDS011;26433;48.034;-1.764;2023-03-23T17:18:07;0.50;;;0.40;;
35304;SDS011;26433;48.034;-1.764;2023-03-23T17:23:11;0.30;;;0.30;;
35304;SDS011;26433;48.034;-1.764;2023-03-23T17:28:15;0.30;;;0.30;;
35304;SDS011;26433;48.034;-1.764;2023-03-23T17:33:23;0.95;;;0.73;;
35304;SDS011;26433;48.034;-1.764;2023-03-23T17:38:26;1.12;;;0.50;;
35304;SDS011;26433;48.034;-1.764;2023-03-23T17:43:30;0.40;;;0.30;;
35304;SDS011;26433;48.034;-1.764;2023-03-23T17:48:36;0.52;;;0.50;;
35304;SDS011;26433;48.034;-1.764;2023-03-23T17:53:44;0.47;;;0.32;;
35304;SDS011;26433;48.034;-1.764;2023-03-23T17:58:47;0.40;;;0.40;;
35304;SDS011;26433;48.034;-1.764;2023-03-23T18:03:52;0.77;;;0.33;;
35304;SDS011;26433;48.034;-1.764;2023-03-23T18:08:56;0.60;;;0.35;;
35304;SDS011;26433;48.034;-1.764;2023-03-23T18:14:00;0.50;;;0.40;;
35304;SDS011;26433;48.034;-1.764;2023-03-23T18:19:05;0.62;;;0.62;;
35304;SDS011;26433;48.034;-1.764;2023-03-23T18:24:10;2.62;;;0.40;;
35304;SDS011;26433;48.034;-1.764;2023-03-23T18:29:14;0.40;;;0.40;;
35304;SDS011;26433;48.034;-1.764;2023-03-23T18:34:19;0.70;;;0.47;;
35304;SDS011;26433;48.034;-1.764;2023-03-23T18:39:25;0.43;;;0.35;;
35304;SDS011;26433;48.034;-1.764;2023-03-23T18:44:29;0.40;;;0.37;;
35304;SDS011;26433;48.034;-1.764;2023-03-23T18:49:34;1.12;;;0.57;;
35304;SDS011;26433;48.034;-1.764;2023-03-23T18:54:38;2.10;;;0.60;;
35304;SDS011;26433;48.034;-1.764;2023-03-23T18:59:45;3.95;;;0.88;;
35304;SDS011;26433;48.034;-1.764;2023-03-23T19:04:51;1.40;;;0.75;;
35304;SDS011;26433;48.034;-1.764;2023-03-23T19:09:55;1.45;;;0.32;;
35304;SDS011;26433;48.034;-1.764;2023-03-23T19:14:58;3.42;;;0.55;;
35304;SDS011;26433;48.034;-1.764;2023-03-23T19:20:05;1.02;;;0.75;;
35304;SDS011;26433;48.034;-1.764;2023-03-23T19:25:20;0.70;;;0.70;;
35304;SDS011;26433;48.034;-1.764;2023-03-23T19:30:24;0.97;;;0.50;;
35304;SDS011;26433;48.034;-1.764;2023-03-23T19:35:29;0.60;;;0.50;;
35304;SDS011;26433;48.034;-1.764;2023-03-23T19:40:33;1.75;;;0.70;;
35304;SDS011;26433;48.034;-1.764;2023-03-23T19:45:50;2.45;;;0.70;;
35304;SDS011;26433;48.034;-1.764;2023-03-23T19:50:55;1.13;;;0.60;;
35304;SDS011;26433;48.034;-1.764;2023-03-23T19:56:00;3.30;;;0.95;;
35304;SDS011;26433;48.034;-1.764;2023-03-23T20:01:05;3.30;;;0.60;;
35304;SDS011;26433;48.034;-1.764;2023-03-23T20:06:12;0.80;;;0.50;;
35304;SDS011;26433;48.034;-1.764;2023-03-23T20:11:17;3.92;;;0.62;;
35304;SDS011;26433;48.034;-1.764;2023-03-23T20:21:27;1.92;;;0.68;;
35304;SDS011;26433;48.034;-1.764;2023-03-23T20:26:31;0.68;;;0.60;;
35304;SDS011;26433;48.034;-1.764;2023-03-23T20:31:37;2.65;;;0.70;;
35304;SDS011;26433;48.034;-1.764;2023-03-23T20:36:44;0.88;;;0.45;;
35304;SDS011;26433;48.034;-1.764;2023-03-23T20:41:50;1.62;;;0.50;;
35304;SDS011;26433;48.034;-1.764;2023-03-23T20:46:55;1.75;;;0.50;;
35304;SDS011;26433;48.034;-1.764;2023-03-23T20:52:00;0.50;;;0.40;;
35304;SDS011;26433;48.034;-1.764;2023-03-23T20:57:05;1.25;;;0.50;;
35304;SDS011;26433;48.034;-1.764;2023-03-23T21:02:10;5.07;;;0.45;;
35304;SDS011;26433;48.034;-1.764;2023-03-23T21:07:18;1.62;;;0.43;;
35304;SDS011;26433;48.034;-1.764;2023-03-23T21:12:24;0.95;;;0.45;;
35304;SDS011;26433;48.034;-1.764;2023-03-23T21:17:28;1.02;;;0.45;;
35304;SDS011;26433;48.034;-1.764;2023-03-23T21:22:33;0.35;;;0.20;;
35304;SDS011;26433;48.034;-1.764;2023-03-23T21:27:37;1.65;;;0.32;;
35304;SDS011;26433;48.034;-1.764;2023-03-23T21:32:41;7.17;;;0.43;;
35304;SDS011;26433;48.034;-1.764;2023-03-23T21:37:46;2.33;;;0.20;;
35304;SDS011;26433;48.034;-1.764;2023-03-23T21:42:50;4.07;;;0.40;;
35304;SDS011;26433;48.034;-1.764;2023-03-23T21:47:54;0.15;;;0.15;;
35304;SDS011;26433;48.034;-1.764;2023-03-23T21:53:00;1.75;;;0.65;;
35304;SDS011;26433;48.034;-1.764;2023-03-23T21:58:04;2.70;;;0.40;;
35304;SDS011;26433;48.034;-1.764;2023-03-23T22:03:08;0.68;;;0.30;;
35304;SDS011;26433;48.034;-1.764;2023-03-23T22:08:13;4.57;;;0.30;;
35304;SDS011;26433;48.034;-1.764;2023-03-23T22:13:17;2.80;;;0.40;;
35304;SDS011;26433;48.034;-1.764;2023-03-23T22:18:21;0.95;;;0.40;;
35304;SDS011;26433;48.034;-1.764;2023-03-23T22:23:26;0.30;;;0.20;;
35304;SDS011;26433;48.034;-1.764;2023-03-23T22:28:30;2.60;;;0.30;;
35304;SDS011;26433;48.034;-1.764;2023-03-23T22:33:35;1.67;;;0.45;;
35304;SDS011;26433;48.034;-1.764;2023-03-23T22:38:41;4.82;;;0.55;;
35304;SDS011;26433;48.034;-1.764;2023-03-23T22:43:46;1.90;;;0.28;;
35304;SDS011;26433;48.034;-1.764;2023-03-23T22:48:51;3.67;;;0.25;;
35304;SDS011;26433;48.034;-1.764;2023-03-23T22:53:56;5.80;;;0.30;;
35304;SDS011;26433;48.034;-1.764;2023-03-23T22:59:00;4.60;;;0.60;;
35304;SDS011;26433;48.034;-1.764;2023-03-23T23:04:04;1.37;;;0.43;;
35304;SDS011;26433;48.034;-1.764;2023-03-23T23:09:09;4.70;;;0.40;;
35304;SDS011;26433;48.034;-1.764;2023-03-23T23:14:13;0.52;;;0.32;;
35304;SDS011;26433;48.034;-1.764;2023-03-23T23:19:17;4.10;;;0.55;;
35304;SDS011;26433;48.034;-1.764;2023-03-23T23:24:22;1.93;;;0.50;;
35304;SDS011;26433;48.034;-1.764;2023-03-23T23:29:27;4.25;;;0.50;;
